createdAt,value
2023-02-19T00:01:29.976Z,98372.75
2023-02-19T00:03:59.579Z,98392.72
2023-02-19T00:06:27.939Z,98368.00
2023-02-19T00:08:54.726Z,98368.97
2023-02-19T00:11:23.266Z,98394.78
2023-02-19T00:13:52.715Z,98384.56
2023-02-19T00:16:22.569Z,98390.13
2023-02-19T00:18:49.683Z,98367.69
2023-02-19T00:21:16.837Z,98371.06
2023-02-19T00:23:43.592Z,98366.00
2023-02-19T00:26:18.535Z,98367.84
2023-02-19T00:28:46.830Z,98361.97
2023-02-19T00:31:28.077Z,98374.09
2023-02-19T00:33:57.407Z,98377.50
2023-02-19T00:36:25.466Z,98376.88
2023-02-19T00:38:52.325Z,98374.22
2023-02-19T00:41:20.769Z,98382.78
2023-02-19T00:44:05.652Z,98386.38
2023-02-19T00:46:37.649Z,98377.94
2023-02-19T00:49:06.576Z,98378.00
2023-02-19T00:51:36.877Z,98387.63
2023-02-19T00:54:04.465Z,98379.81
2023-02-19T00:56:31.530Z,98386.69
2023-02-19T00:58:58.176Z,98391.59
2023-02-19T01:01:28.212Z,98379.44
2023-02-19T01:03:55.260Z,98372.66
2023-02-19T01:06:21.961Z,98378.75
2023-02-19T01:08:48.996Z,98371.97
2023-02-19T01:11:16.818Z,98361.63
2023-02-19T01:13:44.005Z,98362.53
2023-02-19T01:16:20.007Z,98354.66
2023-02-19T01:18:48.030Z,98353.97
2023-02-19T01:21:18.443Z,98360.19
2023-02-19T01:23:45.329Z,98353.47
2023-02-19T01:26:15.136Z,98349.88
2023-02-19T01:28:42.699Z,98348.09
2023-02-19T01:31:13.668Z,98354.94
2023-02-19T01:33:40.411Z,98353.41
2023-02-19T01:36:07.782Z,98350.09
2023-02-19T01:38:34.347Z,98359.66
2023-02-19T01:41:03.874Z,98359.66
2023-02-19T01:43:33.687Z,98358.84
2023-02-19T01:46:00.888Z,98362.34
2023-02-19T01:48:38.352Z,98355.56
2023-02-19T01:51:18.428Z,98357.34
2023-02-19T01:53:56.596Z,98363.44
2023-02-19T01:56:25.902Z,98358.25
2023-02-19T01:58:53.688Z,98346.31
2023-02-19T02:01:20.308Z,98336.13
2023-02-19T02:03:49.541Z,98332.75
2023-02-19T02:06:22.330Z,98334.28
2023-02-19T02:09:16.265Z,98338.72
2023-02-19T02:11:47.639Z,98332.69
2023-02-19T02:14:15.226Z,98334.34
2023-02-19T02:17:09.903Z,98318.78
2023-02-19T02:20:07.787Z,98329.28
2023-02-19T02:22:47.311Z,98324.94
2023-02-19T02:25:39.899Z,98333.66
2023-02-19T02:28:40.600Z,98325.16
2023-02-19T02:31:14.880Z,98326.03
2023-02-19T02:33:47.965Z,98328.72
2023-02-19T02:36:29.132Z,98332.16
2023-02-19T02:38:58.366Z,98336.53
2023-02-19T02:41:25.724Z,98336.53
2023-02-19T02:43:52.307Z,98323.81
2023-02-19T02:46:33.032Z,98329.78
2023-02-19T02:49:05.574Z,98317.75
2023-02-19T02:51:46.535Z,98324.56
2023-02-19T02:54:42.569Z,98314.34
2023-02-19T02:57:14.926Z,98306.53
2023-02-19T02:59:43.027Z,98296.88
2023-02-19T03:02:18.927Z,98295.88
2023-02-19T03:05:27.122Z,98303.75
2023-02-19T03:07:55.986Z,98301.94
2023-02-19T03:10:28.910Z,98294.31
2023-02-19T03:13:17.580Z,98297.66
2023-02-19T03:16:11.309Z,98292.50
2023-02-19T03:19:00.718Z,98296.09
2023-02-19T03:21:29.012Z,98301.19
2023-02-19T03:24:15.909Z,98296.94
2023-02-19T03:26:45.666Z,98297.88
2023-02-19T03:29:23.099Z,98295.34
2023-02-19T03:31:55.088Z,98295.50
2023-02-19T03:34:31.960Z,98285.16
2023-02-19T03:37:10.962Z,98294.47
2023-02-19T03:39:44.368Z,98296.25
2023-02-19T03:42:23.113Z,98304.72
2023-02-19T03:45:18.804Z,98292.66
2023-02-19T03:47:53.334Z,98305.41
2023-02-19T03:50:55.149Z,98300.16
2023-02-19T03:53:38.257Z,98296.50
2023-02-19T03:56:10.834Z,98296.50
2023-02-19T03:59:06.811Z,98297.28
2023-02-19T04:01:42.481Z,98285.38
2023-02-19T04:04:32.020Z,98296.53
2023-02-19T04:07:01.117Z,98301.00
2023-02-19T04:09:37.546Z,98293.28
2023-02-19T04:12:06.466Z,98295.28
2023-02-19T04:14:39.502Z,98297.06
2023-02-19T04:17:13.693Z,98294.69
2023-02-19T04:19:42.762Z,98288.50
2023-02-19T04:22:11.366Z,98288.78
2023-02-19T04:24:42.959Z,98291.34
2023-02-19T04:27:10.264Z,98288.81
2023-02-19T04:29:39.086Z,98276.00
2023-02-19T04:32:06.392Z,98269.06
2023-02-19T04:34:33.358Z,98271.72
2023-02-19T04:36:59.926Z,98274.22
2023-02-19T04:39:26.482Z,98277.00
2023-02-19T04:41:53.040Z,98280.38
2023-02-19T04:44:19.703Z,98277.84
2023-02-19T04:46:46.299Z,98283.88
2023-02-19T04:49:12.880Z,98278.06
2023-02-19T04:51:39.862Z,98280.72
2023-02-19T04:54:07.011Z,98277.38
2023-02-19T04:56:33.637Z,98275.59
2023-02-19T04:59:00.174Z,98276.50
2023-02-19T05:01:26.895Z,98282.53
2023-02-19T05:03:53.509Z,98279.28
2023-02-19T05:06:20.228Z,98268.94
2023-02-19T05:08:46.893Z,98264.50
2023-02-19T05:11:13.682Z,98273.16
2023-02-19T05:13:40.918Z,98268.75
2023-02-19T05:16:13.987Z,98274.88
2023-02-19T05:18:41.506Z,98267.13
2023-02-19T05:21:09.002Z,98264.47
2023-02-19T05:23:35.726Z,98260.31
2023-02-19T05:26:13.553Z,98258.63
2023-02-19T05:28:40.152Z,98254.19
2023-02-19T05:31:08.901Z,98249.97
2023-02-19T05:33:37.536Z,98250.88
2023-02-19T05:36:07.538Z,98248.28
2023-02-19T05:38:34.631Z,98254.47
2023-02-19T05:41:15.699Z,98245.94
2023-02-19T05:43:44.111Z,98247.59
2023-02-19T05:46:12.898Z,98241.53
2023-02-19T05:48:39.758Z,98238.13
2023-02-19T05:51:09.077Z,98242.28
2023-02-19T05:53:36.505Z,98239.75
2023-02-19T05:56:03.395Z,98229.34
2023-02-19T05:58:30.428Z,98221.50
2023-02-19T06:00:57.220Z,98216.63
2023-02-19T06:03:23.961Z,98218.38
2023-02-19T06:05:50.602Z,98223.50
2023-02-19T06:08:17.150Z,98222.63
2023-02-19T06:10:43.804Z,98214.94
2023-02-19T06:13:11.067Z,98214.00
2023-02-19T06:15:38.253Z,98211.50
2023-02-19T06:18:04.985Z,98219.34
2023-02-19T06:20:31.565Z,98217.53
2023-02-19T06:22:58.225Z,98218.16
2023-02-19T06:25:24.753Z,98220.84
2023-02-19T06:27:51.285Z,98224.25
2023-02-19T06:30:18.138Z,98226.94
2023-02-19T06:32:44.705Z,98231.19
2023-02-19T06:35:11.274Z,98218.97
2023-02-19T06:37:37.924Z,98217.88
2023-02-19T06:40:04.793Z,98231.56
2023-02-19T06:42:33.311Z,98233.44
2023-02-19T06:44:59.862Z,98229.84
2023-02-19T06:47:26.402Z,98241.88
2023-02-19T06:49:53.054Z,98227.94
2023-02-19T06:52:19.637Z,98222.03
2023-02-19T06:54:46.730Z,98226.56
2023-02-19T06:57:13.290Z,98227.38
2023-02-19T06:59:39.922Z,98220.38
2023-02-19T07:02:06.559Z,98229.00
2023-02-19T07:04:33.260Z,98230.59
2023-02-19T07:07:00.365Z,98221.16
2023-02-19T07:09:28.611Z,98222.16
2023-02-19T07:11:55.314Z,98206.66
2023-02-19T07:14:22.267Z,98216.88
2023-02-19T07:16:49.345Z,98219.50
2023-02-19T07:19:15.988Z,98220.31
2023-02-19T07:21:42.736Z,98212.34
2023-02-19T07:24:10.328Z,98207.22
2023-02-19T07:26:37.025Z,98206.34
2023-02-19T07:29:04.349Z,98209.63
2023-02-19T07:31:31.049Z,98204.25
2023-02-19T07:33:57.723Z,98210.00
2023-02-19T07:36:24.966Z,98210.06
2023-02-19T07:38:55.691Z,98203.16
2023-02-19T07:41:22.795Z,98207.63
2023-02-19T07:43:49.426Z,98205.91
2023-02-19T07:46:16.030Z,98199.13
2023-02-19T07:48:43.388Z,98196.44
2023-02-19T07:51:13.734Z,98203.22
2023-02-19T07:53:40.484Z,98192.13
2023-02-19T07:56:08.679Z,98193.50
2023-02-19T07:58:36.135Z,98199.66
2023-02-19T08:01:09.021Z,98193.56
2023-02-19T08:03:37.043Z,98200.47
2023-02-19T08:06:04.794Z,98202.75
2023-02-19T08:08:31.374Z,98197.81
2023-02-19T08:11:20.913Z,98201.16
2023-02-19T08:13:52.466Z,98205.31
2023-02-19T08:16:29.680Z,98206.81
2023-02-19T08:19:03.808Z,98208.41
2023-02-19T08:21:31.000Z,98213.50
2023-02-19T08:23:58.282Z,98221.16
2023-02-19T08:26:24.865Z,98215.75
2023-02-19T08:28:51.429Z,98209.66
2023-02-19T08:31:18.059Z,98216.25
2023-02-19T08:33:44.643Z,98213.66
2023-02-19T08:36:11.678Z,98222.19
2023-02-19T08:38:38.724Z,98209.66
2023-02-19T08:41:11.406Z,98206.50
2023-02-19T08:43:39.466Z,98196.78
2023-02-19T08:46:16.028Z,98199.63
2023-02-19T08:48:42.638Z,98210.47
2023-02-19T08:51:12.045Z,98201.00
2023-02-19T08:53:39.825Z,98207.00
2023-02-19T08:56:12.858Z,98195.94
2023-02-19T08:58:39.740Z,98189.16
2023-02-19T09:01:14.995Z,98191.75
2023-02-19T09:03:42.098Z,98188.16
2023-02-19T09:06:13.524Z,98192.06
2023-02-19T09:08:40.079Z,98192.13
2023-02-19T09:11:07.471Z,98192.69
2023-02-19T09:13:34.189Z,98189.19
2023-02-19T09:16:05.200Z,98186.56
2023-02-19T09:18:32.470Z,98184.00
2023-02-19T09:21:04.783Z,98188.97
2023-02-19T09:23:35.961Z,98182.69
2023-02-19T09:26:06.894Z,98183.75
2023-02-19T09:28:34.019Z,98187.19
2023-02-19T09:31:12.139Z,98178.56
2023-02-19T09:33:42.831Z,98181.22
2023-02-19T09:36:09.549Z,98170.75
2023-02-19T09:38:36.115Z,98170.88
2023-02-19T09:41:38.147Z,98188.91
2023-02-19T09:44:09.281Z,98187.84
2023-02-19T09:46:41.169Z,98170.69
2023-02-19T09:49:36.220Z,98183.34
2023-02-19T09:52:19.957Z,98174.34
2023-02-19T09:54:47.906Z,98170.34
2023-02-19T09:57:23.417Z,98170.78
2023-02-19T10:00:05.359Z,98166.16
2023-02-19T10:02:32.420Z,98172.97
2023-02-19T10:04:59.851Z,98162.50
2023-02-19T10:07:38.282Z,98157.25
2023-02-19T10:10:13.618Z,98159.84
2023-02-19T10:12:54.091Z,98158.75
2023-02-19T10:15:28.232Z,98157.66
2023-02-19T10:17:55.031Z,98159.41
2023-02-19T10:20:26.659Z,98159.38
2023-02-19T10:23:06.790Z,98142.84
2023-02-19T10:25:35.357Z,98149.91
2023-02-19T10:28:04.143Z,98140.13
2023-02-19T10:30:34.895Z,98132.38
2023-02-19T10:33:16.639Z,98139.25
2023-02-19T10:36:06.704Z,98145.13
2023-02-19T10:38:39.647Z,98145.97
2023-02-19T10:41:22.823Z,98142.59
2023-02-19T10:44:15.420Z,98139.84
2023-02-19T10:46:45.691Z,98137.13
2023-02-19T10:49:28.053Z,98142.25
2023-02-19T10:51:57.083Z,98151.69
2023-02-19T10:54:31.550Z,98150.53
2023-02-19T10:57:30.524Z,98146.16
2023-02-19T11:00:22.942Z,98135.78
2023-02-19T11:03:14.115Z,98131.25
2023-02-19T11:05:51.711Z,98120.91
2023-02-19T11:08:23.170Z,98119.78
2023-02-19T11:10:50.215Z,98119.47
2023-02-19T11:13:30.986Z,98107.88
2023-02-19T11:15:59.023Z,98115.59
2023-02-19T11:18:28.186Z,98107.56
2023-02-19T11:21:00.677Z,98112.50
2023-02-19T11:23:31.179Z,98123.44
2023-02-19T11:26:01.616Z,98126.09
2023-02-19T11:28:34.148Z,98121.88
2023-02-19T11:31:27.593Z,98129.72
2023-02-19T11:34:01.112Z,98139.13
2023-02-19T11:36:32.097Z,98135.06
2023-02-19T11:39:00.313Z,98133.34
2023-02-19T11:41:37.256Z,98129.16
2023-02-19T11:44:15.929Z,98131.69
2023-02-19T11:47:01.546Z,98135.78
2023-02-19T11:49:40.027Z,98136.59
2023-02-19T11:52:18.947Z,98129.72
2023-02-19T11:55:01.226Z,98136.53
2023-02-19T11:57:30.703Z,98139.03
2023-02-19T12:00:16.054Z,98138.16
2023-02-19T12:02:49.531Z,98149.47
2023-02-19T12:05:37.968Z,98146.97
2023-02-19T12:08:35.981Z,98156.22
2023-02-19T12:11:19.398Z,98164.88
2023-02-19T12:14:26.231Z,98171.72
2023-02-19T12:17:07.416Z,98182.34
2023-02-19T12:19:47.588Z,98180.94
2023-02-19T12:22:20.065Z,98187.78
2023-02-19T12:24:52.871Z,98181.84
2023-02-19T12:27:40.966Z,98198.16
2023-02-19T12:30:25.255Z,98196.41
2023-02-19T12:33:18.578Z,98214.25
2023-02-19T12:35:55.064Z,98232.41
2023-02-19T12:38:35.219Z,98225.41
2023-02-19T12:41:19.889Z,98227.75
2023-02-19T12:44:04.268Z,98230.56
2023-02-19T12:46:43.103Z,98236.53
2023-02-19T12:49:21.808Z,98230.06
2023-02-19T12:51:57.710Z,98234.63
2023-02-19T12:54:38.926Z,98229.81
2023-02-19T12:57:10.022Z,98235.66
2023-02-19T12:59:46.367Z,98236.03
2023-02-19T13:02:19.750Z,98229.84
2023-02-19T13:04:56.098Z,98244.47
2023-02-19T13:07:38.152Z,98247.38
2023-02-19T13:10:32.216Z,98250.22
2023-02-19T13:13:04.087Z,98240.88
2023-02-19T13:15:35.863Z,98240.13
2023-02-19T13:18:05.256Z,98238.69
2023-02-19T13:20:36.173Z,98223.91
2023-02-19T13:23:27.618Z,98230.41
2023-02-19T13:26:20.818Z,98230.47
2023-02-19T13:28:59.510Z,98230.22
2023-02-19T13:31:41.963Z,98229.31
2023-02-19T13:34:39.811Z,98228.38
2023-02-19T13:37:07.476Z,98228.56
2023-02-19T13:39:34.626Z,98220.69
2023-02-19T13:42:02.216Z,98215.66
2023-02-19T13:44:41.686Z,98213.97
2023-02-19T13:47:46.942Z,98220.00
2023-02-19T13:50:29.056Z,98223.41
2023-02-19T13:52:57.260Z,98232.97
2023-02-19T13:55:52.627Z,98226.16
2023-02-19T13:58:34.562Z,98228.69
2023-02-19T14:01:11.869Z,98222.78
2023-02-19T14:03:48.085Z,98237.06
2023-02-19T14:06:14.833Z,98240.47
2023-02-19T14:08:58.545Z,98240.09
2023-02-19T14:11:45.002Z,98264.31
2023-02-19T14:14:36.228Z,98265.34
2023-02-19T14:17:08.954Z,98256.59
2023-02-19T14:19:42.023Z,98254.59
2023-02-19T14:22:51.526Z,98264.31
2023-02-19T14:25:27.284Z,98270.44
2023-02-19T14:28:21.710Z,98276.38
2023-02-19T14:31:09.061Z,98273.19
2023-02-19T14:33:40.266Z,98272.47
2023-02-19T14:36:16.641Z,98275.03
2023-02-19T14:38:51.924Z,98282.75
2023-02-19T14:41:19.730Z,98283.63
2023-02-19T14:43:50.752Z,98298.41
2023-02-19T14:46:32.891Z,98296.63
2023-02-19T14:49:07.912Z,98298.50
2023-02-19T14:51:41.806Z,98286.78
2023-02-19T14:54:40.721Z,98288.03
2023-02-19T14:57:17.489Z,98282.78
2023-02-19T14:59:55.205Z,98281.03
2023-02-19T15:02:22.116Z,98284.47
2023-02-19T15:04:48.731Z,98284.63
2023-02-19T15:07:20.267Z,98293.13
2023-02-19T15:09:53.408Z,98280.28
2023-02-19T15:12:46.323Z,98285.53
2023-02-19T15:15:21.040Z,98285.41
2023-02-19T15:17:48.423Z,98293.22
2023-02-19T15:20:19.635Z,98298.31
2023-02-19T15:22:46.671Z,98300.09
2023-02-19T15:25:19.985Z,98299.38
2023-02-19T15:27:47.409Z,98315.38
2023-02-19T15:30:28.515Z,98307.75
2023-02-19T15:33:00.053Z,98301.94
2023-02-19T15:35:28.778Z,98311.44
2023-02-19T15:37:55.813Z,98317.47
2023-02-19T15:40:30.077Z,98315.84
2023-02-19T15:42:58.657Z,98317.50
2023-02-19T15:45:30.821Z,98340.78
2023-02-19T15:48:08.261Z,98349.47
2023-02-19T15:50:39.364Z,98342.19
2023-02-19T15:53:09.385Z,98349.00
2023-02-19T15:55:43.331Z,98363.88
2023-02-19T15:58:28.288Z,98368.38
2023-02-19T16:00:59.627Z,98360.03
2023-02-19T16:03:28.028Z,98389.34
2023-02-19T16:06:15.964Z,98396.41
2023-02-19T16:08:45.532Z,98395.53
2023-02-19T16:11:24.210Z,98394.88
2023-02-19T16:13:51.976Z,98402.09
2023-02-19T16:16:34.964Z,98419.53
2023-02-19T16:19:01.872Z,98424.88
2023-02-19T16:21:32.485Z,98431.56
2023-02-19T16:24:13.444Z,98449.69
2023-02-19T16:26:43.156Z,98451.66
2023-02-19T16:29:36.276Z,98459.94
2023-02-19T16:32:08.013Z,98473.06
2023-02-19T16:34:43.084Z,98483.66
2023-02-19T16:37:35.159Z,98492.69
2023-02-19T16:40:12.929Z,98495.56
2023-02-19T16:42:53.123Z,98499.22
2023-02-19T16:45:19.811Z,98509.16
2023-02-19T16:47:51.194Z,98522.13
2023-02-19T16:50:22.215Z,98531.63
2023-02-19T16:52:55.784Z,98549.13
2023-02-19T16:55:22.595Z,98552.56
2023-02-19T16:57:51.788Z,98567.28
2023-02-19T17:00:27.301Z,98582.94
2023-02-19T17:02:57.119Z,98584.53
2023-02-19T17:05:27.474Z,98591.47
2023-02-19T17:07:54.114Z,98584.75
2023-02-19T17:10:24.629Z,98584.94
2023-02-19T17:12:54.875Z,98594.25
2023-02-19T17:15:22.314Z,98601.28
2023-02-19T17:17:48.952Z,98603.94
2023-02-19T17:20:27.671Z,98605.66
2023-02-19T17:22:57.602Z,98619.38
2023-02-19T17:25:24.183Z,98622.72
2023-02-19T17:27:52.716Z,98639.13
2023-02-19T17:30:32.723Z,98642.53
2023-02-19T17:32:59.673Z,98641.69
2023-02-19T17:35:26.261Z,98644.25
2023-02-19T17:37:53.531Z,98650.22
2023-02-19T17:40:32.630Z,98669.25
2023-02-19T17:43:00.052Z,98675.25
2023-02-19T17:45:26.572Z,98682.09
2023-02-19T17:47:53.387Z,98677.94
2023-02-19T17:50:23.214Z,98691.53
2023-02-19T17:52:49.818Z,98689.09
2023-02-19T17:55:18.466Z,98692.63
2023-02-19T17:57:46.008Z,98708.06
2023-02-19T18:00:22.180Z,98714.19
2023-02-19T18:02:51.750Z,98725.38
2023-02-19T18:05:20.657Z,98719.53
2023-02-19T18:07:48.285Z,98722.91
2023-02-19T18:10:20.408Z,98731.56
2023-02-19T18:12:47.919Z,98736.84
2023-02-19T18:15:21.103Z,98741.09
2023-02-19T18:17:47.905Z,98755.81
2023-02-19T18:20:17.285Z,98763.56
2023-02-19T18:22:43.885Z,98773.03
2023-02-19T18:25:11.667Z,98780.75
2023-02-19T18:27:40.898Z,98783.31
2023-02-19T18:30:08.278Z,98787.66
2023-02-19T18:32:35.502Z,98788.56
2023-02-19T18:35:05.247Z,98794.53
2023-02-19T18:37:32.980Z,98804.00
2023-02-19T18:40:00.555Z,98811.75
2023-02-19T18:42:27.787Z,98816.03
2023-02-19T18:44:55.032Z,98818.63
2023-02-19T18:47:22.705Z,98826.34
2023-02-19T18:49:50.476Z,98819.53
2023-02-19T18:52:20.378Z,98824.69
2023-02-19T18:54:48.299Z,98827.28
2023-02-19T18:57:15.593Z,98832.44
2023-02-19T18:59:43.182Z,98822.19
2023-02-19T19:02:10.225Z,98835.91
2023-02-19T19:04:38.580Z,98833.38
2023-02-19T19:07:06.526Z,98840.25
2023-02-19T19:09:34.010Z,98841.97
2023-02-19T19:12:01.032Z,98842.88
2023-02-19T19:14:27.760Z,98851.44
2023-02-19T19:16:54.617Z,98866.81
2023-02-19T19:19:21.664Z,98856.56
2023-02-19T19:21:53.610Z,98866.03
2023-02-19T19:24:21.339Z,98854.91
2023-02-19T19:26:48.796Z,98860.91
2023-02-19T19:29:17.253Z,98861.78
2023-02-19T19:31:44.812Z,98871.19
2023-02-19T19:34:12.560Z,98866.91
2023-02-19T19:36:39.086Z,98873.78
2023-02-19T19:39:06.016Z,98890.88
2023-02-19T19:41:32.594Z,98884.03
2023-02-19T19:44:02.945Z,98891.75
2023-02-19T19:46:29.650Z,98892.56
2023-02-19T19:48:56.236Z,98900.25
2023-02-19T19:51:22.801Z,98907.97
2023-02-19T19:53:49.832Z,98907.13
2023-02-19T19:56:17.613Z,98915.66
2023-02-19T19:58:44.304Z,98919.91
2023-02-19T20:01:11.097Z,98928.47
2023-02-19T20:03:38.008Z,98933.59
2023-02-19T20:06:07.688Z,98940.44
2023-02-19T20:08:34.297Z,98948.97
2023-02-19T20:11:00.904Z,98947.25
2023-02-19T20:13:30.524Z,98958.38
2023-02-19T20:15:57.125Z,98963.50
2023-02-19T20:18:30.546Z,98957.53
2023-02-19T20:20:57.166Z,98960.94
2023-02-19T20:23:23.669Z,98964.34
2023-02-19T20:25:50.271Z,98967.78
2023-02-19T20:28:16.852Z,98973.75
2023-02-19T20:30:43.903Z,98976.34
2023-02-19T20:33:10.645Z,98978.03
2023-02-19T20:35:37.310Z,98978.03
2023-02-19T20:38:03.916Z,98984.88
2023-02-19T20:40:32.243Z,98982.31
2023-02-19T20:43:00.904Z,98982.28
2023-02-19T20:45:28.275Z,98984.00
2023-02-19T20:47:54.834Z,98992.56
2023-02-19T20:50:23.325Z,99000.25
2023-02-19T20:52:50.090Z,98998.53
2023-02-19T20:55:16.786Z,99000.22
2023-02-19T20:57:43.450Z,99005.34
2023-02-19T21:00:11.226Z,99005.34
2023-02-19T21:02:39.868Z,99007.94
2023-02-19T21:05:06.690Z,99007.94
2023-02-19T21:07:33.341Z,99010.50
2023-02-19T21:09:59.944Z,99009.63
2023-02-19T21:12:26.645Z,99014.75
2023-02-19T21:14:53.265Z,99022.47
2023-02-19T21:17:20.093Z,99027.59
2023-02-19T21:19:49.889Z,99025.88
2023-02-19T21:22:16.939Z,99025.88
2023-02-19T21:24:43.690Z,99018.19
2023-02-19T21:27:10.398Z,99028.44
2023-02-19T21:29:36.901Z,99022.44
2023-02-19T21:32:03.541Z,99024.16
2023-02-19T21:34:30.494Z,99030.16
2023-02-19T21:36:57.502Z,99024.16
2023-02-19T21:39:25.688Z,99037.88
2023-02-19T21:41:52.531Z,99044.69
2023-02-19T21:44:21.041Z,99048.13
2023-02-19T21:46:48.445Z,99046.44
2023-02-19T21:49:15.114Z,99053.25
2023-02-19T21:51:43.627Z,99061.81
2023-02-19T21:54:15.959Z,99063.53
2023-02-19T21:56:42.827Z,99069.50
2023-02-19T21:59:09.801Z,99060.09
2023-02-19T22:01:42.293Z,99065.22
2023-02-19T22:04:12.845Z,99058.38
2023-02-19T22:06:40.495Z,99055.84
2023-02-19T22:09:08.240Z,99057.56
2023-02-19T22:11:35.137Z,99051.56
2023-02-19T22:14:02.128Z,99055.84
2023-02-19T22:16:29.305Z,99053.28
2023-02-19T22:18:57.841Z,99061.84
2023-02-19T22:21:27.715Z,99057.53
2023-02-19T22:23:55.472Z,99066.09
2023-02-19T22:26:33.473Z,99070.38
2023-02-19T22:29:04.148Z,99080.63
2023-02-19T22:31:32.362Z,99090.03
2023-02-19T22:33:59.030Z,99084.91
2023-02-19T22:36:28.690Z,99092.56
2023-02-19T22:38:55.258Z,99090.00
2023-02-19T22:41:22.705Z,99094.31
2023-02-19T22:43:49.712Z,99101.97
2023-02-19T22:46:22.248Z,99106.25
2023-02-19T22:48:49.093Z,99111.38
2023-02-19T22:51:18.898Z,99113.94
2023-02-19T22:53:53.036Z,99115.63
2023-02-19T22:56:21.312Z,99118.19
2023-02-19T22:58:48.342Z,99126.75
2023-02-19T23:01:15.486Z,99130.13
2023-02-19T23:03:50.809Z,99137.81
2023-02-19T23:06:22.231Z,99136.06
2023-02-19T23:08:48.745Z,99136.06
2023-02-19T23:11:22.137Z,99136.06
2023-02-19T23:13:48.719Z,99138.63
2023-02-19T23:16:15.791Z,99144.59
2023-02-19T23:18:42.576Z,99150.56
2023-02-19T23:21:10.056Z,99150.56
2023-02-19T23:23:36.667Z,99155.66
2023-02-19T23:26:04.754Z,99153.94
2023-02-19T23:28:31.278Z,99147.94
2023-02-19T23:30:58.040Z,99159.06
2023-02-19T23:33:24.649Z,99153.94
2023-02-19T23:35:51.307Z,99161.59
2023-02-19T23:38:18.201Z,99167.56
2023-02-19T23:40:45.411Z,99159.03
2023-02-19T23:43:12.004Z,99167.56
2023-02-19T23:45:38.561Z,99157.31
2023-02-19T23:48:05.147Z,99162.44
2023-02-19T23:50:31.697Z,99158.16
2023-02-19T23:52:59.336Z,99153.00
2023-02-19T23:55:27.129Z,99154.72
2023-02-19T23:57:53.813Z,99151.28
